Fairlee, VT (05045)

5:05 AM EDT on July 26, 2016 (GMT -0400)
Bill's Place | | Change Station

Elev 407 ft 43.90 °N, 72.14 °W | Updated 28 seconds ago

Clear
Clear
64.8 °F
Feels Like 64.8 °F
N
0.0
Wind Variable Wind from South
Gusts 0.0 mph

Today
High -- | Low -- °F
--% Chance of Precip.
Yesterday
High -- | Low -- °F
Precip. -- in
Pressure 29.76 in
Visibility 7.0 miles
Clouds Clear
Dew Point 60 °F
Humidity 84%
Rainfall 0.00 in
Snow Depth Not available.
5:31 AM 8:18 PM
Waning Gibbous, 57% visible
METAR KLEB 260853Z AUTO 00000KT 7SM CLR 18/17 A2979 RMK AO2 SLP076 T01830167 53005
Pressure 29.76 in
Visibility 7.0 miles
Clouds Clear
Dew Point 60 °F
Humidity 84%
Rainfall 0.00 in
Snow Depth Not available.
5:31 AM 8:18 PM
Waning Gibbous, 57% visible
METAR KLEB 260853Z AUTO 00000KT 7SM CLR 18/17 A2979 RMK AO2 SLP076 T01830167 53005

10-Day Weather Forecast

Almanac

Astronomy

Jul. 26, 2016 Rise Set
Actual Time
Civil Twilight
Nautical Twilight
Astronomical Twilight
Moon
Length of Visible Light
Length of Day
Tomorrow will be .
, % of the Moon is Illuminated

Today's Extremes

State Highs State Lows

Community

WunderPhotos

Upload Photos

1,927,556 photos uploaded!

WunderBlog® & News

Nearby

Air Quality

  Air Quality AQ Index Pollutant
Not available.

Snow Depth

Station Depth Elevation

Earthquake Activity

City Distance Mag. Time & Date
Minimum magnitude displayed is 2.5.

Coastal Water Temperatures

Place Temperature

Stations

Nearby Weather Stations

Station Location Temp. Windchill Dew Point Humidity Wind Precip. Elev Updated Type
                   

Watches & Warnings

There are currently no watches in effect.